createdAt,value
2024-03-09T00:00:41.613Z,29.00
2024-03-09T00:03:11.132Z,28.55
2024-03-09T00:05:40.638Z,29.98
2024-03-09T00:08:08.479Z,29.88
2024-03-09T00:10:35.061Z,29.83
2024-03-09T00:13:02.618Z,28.90
2024-03-09T00:15:29.663Z,30.75
2024-03-09T00:17:57.694Z,30.92
2024-03-09T00:20:38.047Z,30.33
2024-03-09T00:23:07.658Z,31.10
2024-03-09T00:25:35.562Z,30.65
2024-03-09T00:28:02.091Z,32.25
2024-03-09T00:30:32.391Z,31.38
2024-03-09T00:33:00.505Z,32.47
2024-03-09T00:35:31.302Z,30.95
2024-03-09T00:37:59.345Z,31.25
2024-03-09T00:40:29.815Z,32.47
2024-03-09T00:42:58.145Z,31.98
2024-03-09T00:45:25.323Z,34.20
2024-03-09T00:47:51.970Z,32.10
2024-03-09T00:50:18.766Z,34.55
2024-03-09T00:52:46.607Z,33.42
2024-03-09T00:55:15.504Z,33.20
2024-03-09T00:57:43.786Z,32.67
2024-03-09T01:00:12.158Z,33.42
2024-03-09T01:02:44.081Z,35.90
2024-03-09T01:05:11.760Z,34.33
2024-03-09T01:07:39.347Z,34.38
2024-03-09T01:10:07.387Z,36.20
2024-03-09T01:12:35.003Z,34.13
2024-03-09T01:15:02.611Z,35.22
2024-03-09T01:17:29.248Z,35.95
2024-03-09T01:19:56.566Z,37.58
2024-03-09T01:22:23.734Z,36.28
2024-03-09T01:24:51.028Z,36.60
2024-03-09T01:27:18.300Z,36.28
2024-03-09T01:29:50.692Z,35.88
2024-03-09T01:32:17.423Z,35.97
2024-03-09T01:34:45.437Z,34.33
2024-03-09T01:37:12.055Z,37.20
2024-03-09T01:39:39.727Z,37.45
2024-03-09T01:42:09.549Z,36.70
2024-03-09T01:44:36.540Z,36.10
2024-03-09T01:47:10.233Z,37.90
2024-03-09T01:49:37.850Z,36.85
2024-03-09T01:52:06.316Z,38.22
2024-03-09T01:54:35.731Z,38.40
2024-03-09T01:57:02.671Z,36.40
2024-03-09T01:59:31.025Z,37.88
2024-03-09T02:01:58.753Z,38.00
2024-03-09T02:04:29.079Z,39.30
2024-03-09T02:07:23.400Z,38.22
2024-03-09T02:09:49.974Z,38.72
2024-03-09T02:12:19.279Z,36.88
2024-03-09T02:14:46.086Z,37.97
2024-03-09T02:17:13.536Z,38.22
2024-03-09T02:19:41.571Z,38.13
2024-03-09T02:22:11.293Z,37.75
2024-03-09T02:24:42.403Z,39.67
2024-03-09T02:29:35.868Z,37.83
2024-03-09T02:32:02.973Z,37.70
2024-03-09T02:34:29.716Z,40.10
2024-03-09T02:36:56.180Z,39.30
2024-03-09T02:39:24.649Z,38.22
2024-03-09T02:41:51.247Z,40.15
2024-03-09T02:44:18.402Z,39.05
2024-03-09T02:46:45.587Z,40.53
2024-03-09T02:49:12.137Z,38.42
2024-03-09T02:51:38.736Z,38.88
2024-03-09T02:54:05.486Z,41.05
2024-03-09T02:56:31.949Z,40.10
2024-03-09T02:59:00.001Z,40.28
2024-03-09T03:01:28.124Z,40.65
2024-03-09T03:04:00.013Z,40.55
2024-03-09T03:06:29.588Z,40.03
2024-03-09T03:09:00.270Z,41.33
2024-03-09T03:11:27.074Z,40.47
2024-03-09T03:13:53.972Z,41.72
2024-03-09T03:16:27.101Z,39.22
2024-03-09T03:18:54.282Z,39.25
2024-03-09T03:21:20.714Z,41.03
2024-03-09T03:23:49.999Z,41.58
2024-03-09T03:26:17.922Z,40.47
2024-03-09T03:28:45.989Z,41.03
2024-03-09T03:31:15.610Z,40.65
2024-03-09T03:33:42.305Z,40.78
2024-03-09T03:36:15.053Z,43.00
2024-03-09T03:38:45.295Z,39.72
2024-03-09T03:41:12.102Z,42.08
2024-03-09T03:43:39.350Z,41.10
2024-03-09T03:46:07.365Z,42.00
2024-03-09T03:48:34.598Z,41.72
2024-03-09T03:51:00.983Z,42.30
2024-03-09T03:53:27.934Z,42.80
2024-03-09T03:55:54.558Z,41.90
2024-03-09T03:58:24.042Z,43.70
2024-03-09T04:00:51.052Z,43.08
2024-03-09T04:03:17.861Z,43.25
2024-03-09T04:05:45.454Z,45.72
2024-03-09T04:08:12.259Z,44.15
2024-03-09T04:10:39.002Z,45.80
2024-03-09T04:13:06.380Z,44.53
2024-03-09T04:15:33.739Z,44.53
2024-03-09T04:18:04.686Z,45.28
2024-03-09T04:20:35.146Z,44.17
2024-03-09T04:23:06.152Z,44.07
2024-03-09T04:25:36.899Z,46.15
2024-03-09T04:28:04.305Z,46.20
2024-03-09T04:30:34.166Z,46.35
2024-03-09T04:33:07.040Z,45.75
2024-03-09T04:35:35.235Z,45.00
2024-03-09T04:38:03.184Z,47.53
2024-03-09T04:40:30.603Z,46.80
2024-03-09T04:42:57.402Z,46.03
2024-03-09T04:45:26.156Z,47.97
2024-03-09T04:47:53.774Z,46.63
2024-03-09T04:50:20.911Z,47.30
2024-03-09T04:52:52.148Z,46.90
2024-03-09T04:57:57.304Z,47.50
2024-03-09T05:00:26.049Z,47.53
2024-03-09T05:02:53.204Z,47.55
2024-03-09T05:05:20.315Z,47.90
2024-03-09T05:07:49.217Z,49.63
2024-03-09T05:10:20.604Z,48.50
2024-03-09T05:12:57.482Z,51.80
2024-03-09T05:15:30.458Z,48.72
2024-03-09T05:17:59.782Z,47.63
2024-03-09T05:20:27.281Z,50.00
2024-03-09T05:22:55.641Z,49.53
2024-03-09T05:25:23.048Z,46.78
2024-03-09T05:27:50.655Z,48.72
2024-03-09T05:30:19.863Z,50.88
2024-03-09T05:32:58.408Z,50.72
2024-03-09T05:35:30.291Z,48.42
2024-03-09T05:38:00.120Z,50.50
2024-03-09T05:40:32.836Z,48.28
2024-03-09T05:43:05.449Z,49.10
2024-03-09T05:45:32.108Z,51.55
2024-03-09T05:48:00.079Z,48.70
2024-03-09T05:50:31.846Z,52.03
2024-03-09T05:53:01.646Z,49.28
2024-03-09T05:55:29.142Z,52.03
2024-03-09T05:57:57.078Z,51.58
2024-03-09T06:00:30.183Z,49.03
2024-03-09T06:02:58.482Z,49.60
2024-03-09T06:05:32.228Z,50.80
2024-03-09T06:07:59.756Z,51.58
2024-03-09T06:10:27.417Z,50.67
2024-03-09T06:12:55.049Z,49.55
2024-03-09T06:15:26.000Z,50.65
2024-03-09T06:18:00.154Z,51.88
2024-03-09T06:20:28.256Z,50.25
2024-03-09T06:22:56.980Z,49.78
2024-03-09T06:25:24.902Z,48.45
2024-03-09T06:27:53.758Z,50.35
2024-03-09T06:30:20.904Z,49.85
2024-03-09T06:32:50.452Z,53.05
2024-03-09T06:35:20.343Z,49.95
2024-03-09T06:38:02.729Z,49.58
2024-03-09T06:40:34.136Z,48.42
2024-03-09T06:43:08.383Z,48.33
2024-03-09T06:45:37.460Z,50.80
2024-03-09T06:48:07.291Z,50.00
2024-03-09T06:50:36.970Z,51.65
2024-03-09T06:53:04.779Z,51.80
2024-03-09T06:55:31.439Z,52.17
2024-03-09T06:58:03.074Z,52.00
2024-03-09T07:00:31.660Z,49.60
2024-03-09T07:03:01.560Z,47.90
2024-03-09T07:05:28.978Z,49.50
2024-03-09T07:07:59.736Z,49.67
2024-03-09T07:10:28.490Z,49.90
2024-03-09T07:12:55.416Z,51.90
2024-03-09T07:15:23.369Z,50.45
2024-03-09T07:17:51.086Z,49.22
2024-03-09T07:20:19.238Z,48.50
2024-03-09T07:22:50.859Z,49.17
2024-03-09T07:27:49.424Z,47.15
2024-03-09T07:30:16.060Z,46.70
2024-03-09T07:32:50.329Z,45.80
2024-03-09T07:35:21.438Z,48.75
2024-03-09T07:37:56.556Z,44.72
2024-03-09T07:40:25.670Z,46.88
2024-03-09T07:42:56.417Z,44.75
2024-03-09T07:45:24.627Z,46.00
2024-03-09T07:47:51.768Z,45.63
2024-03-09T07:50:23.639Z,44.90
2024-03-09T07:52:55.613Z,43.13
2024-03-09T07:55:25.605Z,46.30
2024-03-09T07:58:09.072Z,42.97
2024-03-09T08:00:45.226Z,42.80
2024-03-09T08:03:13.363Z,43.95
2024-03-09T08:05:39.909Z,44.75
2024-03-09T08:08:11.096Z,44.75
2024-03-09T08:10:40.399Z,46.13
2024-03-09T08:13:06.865Z,45.25
2024-03-09T08:15:33.758Z,42.83
2024-03-09T08:18:00.386Z,42.58
2024-03-09T08:20:28.002Z,41.40
2024-03-09T08:22:55.387Z,41.50
2024-03-09T08:25:26.652Z,41.47
2024-03-09T08:27:55.804Z,41.55
2024-03-09T08:30:22.424Z,40.38
2024-03-09T08:32:51.835Z,42.28
2024-03-09T08:35:20.230Z,41.17
2024-03-09T08:37:47.885Z,41.40
2024-03-09T08:40:18.717Z,40.47
2024-03-09T08:42:50.938Z,39.72
2024-03-09T08:45:17.418Z,40.80
2024-03-09T08:47:43.966Z,40.10
2024-03-09T08:50:13.839Z,40.58
2024-03-09T08:52:41.385Z,41.47
2024-03-09T08:55:11.056Z,40.42
2024-03-09T08:57:38.325Z,38.70
2024-03-09T09:00:06.494Z,38.22
2024-03-09T09:02:34.005Z,40.97
2024-03-09T09:05:01.501Z,38.75
2024-03-09T09:07:28.506Z,38.40
2024-03-09T09:09:54.949Z,38.30
2024-03-09T09:12:21.334Z,36.28
2024-03-09T09:14:48.166Z,37.50
2024-03-09T09:17:14.701Z,37.22
2024-03-09T09:19:41.244Z,36.05
2024-03-09T09:22:08.603Z,35.33
2024-03-09T09:24:35.331Z,35.15
2024-03-09T09:27:01.730Z,36.72
2024-03-09T09:29:31.461Z,35.47
2024-03-09T09:32:01.797Z,34.30
2024-03-09T09:34:34.857Z,35.17
2024-03-09T09:37:01.546Z,33.80
2024-03-09T09:39:34.076Z,34.40
2024-03-09T09:42:01.205Z,34.67
2024-03-09T09:44:29.270Z,33.55
2024-03-09T09:47:00.540Z,33.28
2024-03-09T09:49:27.531Z,34.95
2024-03-09T09:51:58.629Z,33.85
2024-03-09T09:54:28.089Z,33.30
2024-03-09T09:56:57.382Z,31.92
2024-03-09T09:59:25.076Z,31.15
2024-03-09T10:01:52.052Z,31.48
2024-03-09T10:04:18.678Z,31.10
2024-03-09T10:06:46.199Z,31.65
2024-03-09T10:09:25.766Z,32.25
2024-03-09T10:11:52.254Z,33.90
2024-03-09T10:14:28.730Z,33.90
2024-03-09T10:16:55.661Z,32.28
2024-03-09T10:19:22.278Z,32.63
2024-03-09T10:21:52.988Z,31.00
2024-03-09T10:24:19.821Z,31.30
2024-03-09T10:26:46.734Z,31.83
2024-03-09T10:29:16.988Z,31.67
2024-03-09T10:31:44.686Z,31.30
2024-03-09T10:34:14.140Z,31.10
2024-03-09T10:36:41.023Z,33.15
2024-03-09T10:39:08.233Z,30.77
2024-03-09T10:41:36.824Z,32.22
2024-03-09T10:44:04.438Z,30.15
2024-03-09T10:46:33.588Z,31.38
2024-03-09T10:49:00.249Z,30.55
2024-03-09T10:51:26.884Z,31.48
2024-03-09T10:54:08.267Z,30.63
2024-03-09T10:56:35.817Z,27.65
2024-03-09T10:59:02.478Z,28.08
2024-03-09T11:01:29.186Z,28.58
2024-03-09T11:03:55.607Z,28.90
2024-03-09T11:06:23.261Z,28.60
2024-03-09T11:08:54.670Z,27.63
2024-03-09T11:11:26.391Z,27.45
2024-03-09T11:16:22.495Z,28.33
2024-03-09T11:18:54.950Z,28.00
2024-03-09T11:21:35.921Z,26.65
2024-03-09T11:24:08.824Z,26.30
2024-03-09T11:26:57.289Z,28.30
2024-03-09T11:29:31.377Z,26.08
2024-03-09T11:31:59.953Z,26.38
2024-03-09T11:34:27.731Z,25.30
2024-03-09T11:37:02.546Z,25.52
2024-03-09T11:39:32.533Z,22.67
2024-03-09T11:42:02.019Z,22.50
2024-03-09T11:44:30.819Z,23.92
2024-03-09T11:46:58.266Z,25.75
2024-03-09T11:49:34.245Z,25.42
2024-03-09T11:52:03.931Z,26.50
2024-03-09T11:54:30.721Z,24.17
2024-03-09T11:57:00.135Z,25.50
2024-03-09T11:59:27.187Z,27.35
2024-03-09T12:02:00.660Z,25.50
2024-03-09T12:04:34.319Z,26.45
2024-03-09T12:07:09.118Z,25.45
2024-03-09T12:09:35.991Z,21.73
2024-03-09T12:12:20.646Z,19.00
2024-03-09T12:14:47.964Z,18.58
2024-03-09T12:17:16.033Z,18.20
2024-03-09T12:19:43.751Z,18.77
2024-03-09T12:22:11.379Z,19.02
2024-03-09T12:24:37.843Z,18.70
2024-03-09T12:27:04.452Z,19.05
2024-03-09T12:29:33.968Z,18.98
2024-03-09T12:32:00.602Z,19.60
2024-03-09T12:34:27.713Z,19.73
2024-03-09T12:36:55.314Z,21.17
2024-03-09T12:39:21.905Z,20.27
2024-03-09T12:41:52.715Z,19.88
2024-03-09T12:44:19.608Z,20.02
2024-03-09T12:46:46.173Z,21.05
2024-03-09T12:49:15.245Z,21.42
2024-03-09T12:51:50.001Z,21.92
2024-03-09T12:54:19.813Z,22.58
2024-03-09T12:56:49.144Z,21.40
2024-03-09T12:59:28.419Z,21.77
2024-03-09T13:01:55.973Z,21.60
2024-03-09T13:04:27.465Z,22.85
2024-03-09T13:06:56.853Z,23.08
2024-03-09T13:09:31.603Z,23.65
2024-03-09T13:11:58.645Z,21.95
2024-03-09T13:14:25.117Z,23.45
2024-03-09T13:16:51.930Z,24.17
2024-03-09T13:19:18.720Z,23.00
2024-03-09T13:21:56.128Z,24.10
2024-03-09T13:24:23.885Z,23.75
2024-03-09T13:26:54.619Z,24.80
2024-03-09T13:29:29.032Z,23.58
2024-03-09T13:31:56.464Z,22.95
2024-03-09T13:34:22.881Z,23.42
2024-03-09T13:36:49.259Z,25.08
2024-03-09T13:39:17.534Z,24.00
2024-03-09T13:41:46.050Z,23.83
2024-03-09T13:44:13.484Z,22.35
2024-03-09T13:46:42.279Z,23.63
2024-03-09T13:49:14.484Z,23.38
2024-03-09T13:51:44.675Z,24.77
2024-03-09T13:54:11.283Z,23.38
2024-03-09T13:56:38.316Z,24.58
2024-03-09T13:59:15.473Z,24.52
2024-03-09T14:01:44.577Z,24.70
2024-03-09T14:04:12.228Z,22.70
2024-03-09T14:06:55.999Z,23.00
2024-03-09T14:09:31.485Z,22.48
2024-03-09T14:11:58.191Z,24.33
2024-03-09T14:14:24.689Z,23.13
2024-03-09T14:16:51.122Z,22.60
2024-03-09T14:19:20.574Z,22.95
2024-03-09T14:21:50.373Z,22.10
2024-03-09T14:24:16.962Z,21.02
2024-03-09T14:26:45.777Z,21.38
2024-03-09T14:29:14.536Z,21.45
2024-03-09T14:31:42.261Z,21.38
2024-03-09T14:34:09.149Z,21.55
2024-03-09T14:36:35.779Z,21.50
2024-03-09T14:39:03.033Z,21.42
2024-03-09T14:41:29.519Z,21.17
2024-03-09T14:43:57.965Z,19.90
2024-03-09T14:46:25.155Z,20.35
2024-03-09T14:48:54.263Z,19.60
2024-03-09T14:51:23.593Z,20.27
2024-03-09T14:53:51.181Z,18.38
2024-03-09T14:56:18.535Z,18.75
2024-03-09T14:58:50.235Z,19.27
2024-03-09T15:01:21.234Z,19.65
2024-03-09T15:03:47.877Z,19.65
2024-03-09T15:06:18.453Z,18.90
2024-03-09T15:08:45.063Z,19.90
2024-03-09T15:11:17.826Z,18.95
2024-03-09T15:13:52.528Z,19.92
2024-03-09T15:16:23.495Z,18.85
2024-03-09T15:18:53.698Z,19.02
2024-03-09T15:21:24.471Z,18.15
2024-03-09T15:23:52.866Z,19.63
2024-03-09T15:26:20.954Z,19.27
2024-03-09T15:28:47.823Z,19.42
2024-03-09T15:31:15.885Z,20.15
2024-03-09T15:33:42.951Z,19.38
2024-03-09T15:36:11.806Z,20.42
2024-03-09T15:38:41.961Z,20.13
2024-03-09T15:41:12.798Z,20.48
2024-03-09T15:43:42.978Z,14.32
2024-03-09T15:46:12.359Z,20.42
2024-03-09T15:48:40.075Z,20.50
2024-03-09T15:51:07.597Z,21.30
2024-03-09T15:53:35.631Z,21.85
2024-03-09T15:56:02.466Z,21.75
2024-03-09T15:58:31.506Z,21.02
2024-03-09T16:01:04.029Z,21.25
2024-03-09T16:03:32.796Z,19.67
2024-03-09T16:06:03.343Z,20.00
2024-03-09T16:08:29.950Z,20.95
2024-03-09T16:10:56.972Z,21.05
2024-03-09T16:13:23.509Z,20.95
2024-03-09T16:15:51.046Z,20.45
2024-03-09T16:18:18.434Z,21.08
2024-03-09T16:20:45.122Z,21.02
2024-03-09T16:23:19.185Z,21.88
2024-03-09T16:25:50.296Z,22.23
2024-03-09T16:28:18.057Z,20.80
2024-03-09T16:30:45.310Z,22.13
2024-03-09T16:33:15.220Z,22.13
2024-03-09T16:35:45.408Z,22.60
2024-03-09T16:38:12.005Z,22.48
2024-03-09T16:40:40.299Z,22.05
2024-03-09T16:43:08.853Z,21.90
2024-03-09T16:45:35.686Z,21.90
2024-03-09T16:48:07.361Z,23.70
2024-03-09T16:50:34.508Z,22.27
2024-03-09T16:53:01.198Z,23.35
2024-03-09T16:55:31.218Z,22.35
2024-03-09T17:00:29.458Z,22.73
2024-03-09T17:02:55.897Z,23.42
2024-03-09T17:05:27.811Z,23.27
2024-03-09T17:07:55.539Z,23.23
2024-03-09T17:10:22.076Z,25.42
2024-03-09T17:12:50.782Z,23.42
2024-03-09T17:15:20.037Z,23.60
2024-03-09T17:17:49.143Z,23.50
2024-03-09T17:20:27.196Z,23.25
2024-03-09T17:22:56.979Z,22.38
2024-03-09T17:25:23.867Z,24.63
2024-03-09T17:27:51.070Z,23.45
2024-03-09T17:30:17.654Z,24.27
2024-03-09T17:32:47.640Z,23.50
2024-03-09T17:35:23.582Z,23.40
2024-03-09T17:37:50.897Z,22.75
2024-03-09T17:40:17.939Z,22.10
2024-03-09T17:42:55.174Z,24.23
2024-03-09T17:45:27.066Z,24.40
2024-03-09T17:47:53.875Z,23.23
2024-03-09T17:50:20.724Z,22.92
2024-03-09T17:52:48.725Z,24.48
2024-03-09T17:55:20.713Z,23.65
2024-03-09T17:57:52.862Z,24.52
2024-03-09T18:00:25.648Z,22.85
2024-03-09T18:02:58.119Z,24.25
2024-03-09T18:05:29.884Z,23.15
2024-03-09T18:10:28.556Z,22.77
2024-03-09T18:12:55.993Z,23.08
2024-03-09T18:15:24.128Z,23.58
2024-03-09T18:17:52.241Z,23.48
2024-03-09T18:20:23.963Z,22.02
2024-03-09T18:22:54.440Z,23.00
2024-03-09T18:25:21.677Z,22.70
2024-03-09T18:27:49.013Z,24.88
2024-03-09T18:30:18.668Z,23.50
2024-03-09T18:32:49.651Z,22.73
2024-03-09T18:35:23.524Z,21.88
2024-03-09T18:37:51.386Z,22.40
2024-03-09T18:40:17.909Z,22.65
2024-03-09T18:42:48.443Z,22.17
2024-03-09T18:45:15.894Z,21.85
2024-03-09T18:47:42.976Z,22.35
2024-03-09T18:50:10.443Z,22.38
2024-03-09T18:52:40.387Z,23.35
2024-03-09T18:55:12.453Z,23.17
2024-03-09T18:57:40.310Z,22.52
2024-03-09T19:00:17.182Z,23.13
2024-03-09T19:02:46.915Z,22.77
2024-03-09T19:05:24.379Z,21.48
2024-03-09T19:07:53.019Z,22.67
2024-03-09T19:10:20.092Z,22.02
2024-03-09T19:12:48.414Z,21.27
2024-03-09T19:15:15.258Z,24.35
2024-03-09T19:17:43.374Z,23.23
2024-03-09T19:20:13.305Z,23.20
2024-03-09T19:22:40.993Z,22.77
2024-03-09T19:25:11.733Z,22.38
2024-03-09T19:27:42.079Z,17.58
2024-03-09T19:30:16.684Z,23.10
2024-03-09T19:32:45.629Z,24.23
2024-03-09T19:35:16.950Z,23.42
2024-03-09T19:40:21.840Z,22.30
2024-03-09T19:42:49.484Z,23.52
2024-03-09T19:45:20.956Z,24.98
2024-03-09T19:47:49.769Z,23.30
2024-03-09T19:50:17.278Z,22.88
2024-03-09T19:52:48.707Z,25.20
2024-03-09T19:55:16.973Z,25.13
2024-03-09T19:57:44.120Z,25.00
2024-03-09T20:00:14.737Z,24.00
2024-03-09T20:02:41.833Z,25.60
2024-03-09T20:05:12.185Z,25.67
2024-03-09T20:07:39.341Z,24.50
2024-03-09T20:10:07.161Z,26.65
2024-03-09T20:12:34.708Z,26.67
2024-03-09T20:15:02.448Z,25.38
2024-03-09T20:17:28.997Z,26.40
2024-03-09T20:19:57.750Z,26.63
2024-03-09T20:22:25.094Z,25.55
2024-03-09T20:24:51.547Z,26.08
2024-03-09T20:27:17.930Z,25.10
2024-03-09T20:29:44.319Z,28.30
2024-03-09T20:32:11.198Z,26.38
2024-03-09T20:34:37.781Z,27.38
2024-03-09T20:37:04.399Z,26.27
2024-03-09T20:39:30.842Z,26.83
2024-03-09T20:41:57.212Z,26.15
2024-03-09T20:44:23.677Z,27.55
2024-03-09T20:46:50.265Z,27.20
2024-03-09T20:49:16.968Z,25.35
2024-03-09T20:51:43.359Z,26.75
2024-03-09T20:54:10.070Z,26.83
2024-03-09T20:56:38.363Z,26.30
2024-03-09T20:59:04.827Z,28.02
2024-03-09T21:01:31.542Z,26.25
2024-03-09T21:03:57.903Z,28.38
2024-03-09T21:06:24.401Z,27.52
2024-03-09T21:08:52.390Z,27.17
2024-03-09T21:11:18.870Z,26.52
2024-03-09T21:13:45.327Z,25.75
2024-03-09T21:16:11.891Z,26.80
2024-03-09T21:18:38.445Z,26.75
2024-03-09T21:21:05.294Z,24.40
2024-03-09T21:23:31.882Z,25.52
2024-03-09T21:25:58.432Z,25.83
2024-03-09T21:28:25.877Z,26.52
2024-03-09T21:30:53.729Z,26.42
2024-03-09T21:33:21.979Z,25.73
2024-03-09T21:35:48.364Z,26.40
2024-03-09T21:38:15.733Z,25.08
2024-03-09T21:40:42.338Z,26.08
2024-03-09T21:43:09.184Z,26.20
2024-03-09T21:45:36.166Z,25.77
2024-03-09T21:48:04.237Z,25.02
2024-03-09T21:50:31.096Z,25.77
2024-03-09T21:53:00.080Z,23.90
2024-03-09T21:55:27.370Z,23.98
2024-03-09T21:57:54.686Z,25.40
2024-03-09T22:00:21.627Z,23.98
2024-03-09T22:02:50.130Z,25.38
2024-03-09T22:05:20.894Z,25.00
2024-03-09T22:07:53.569Z,26.70
2024-03-09T22:10:22.654Z,23.70
2024-03-09T22:12:51.747Z,24.13
2024-03-09T22:15:18.767Z,24.20
2024-03-09T22:17:45.422Z,25.67
2024-03-09T22:20:16.321Z,24.17
2024-03-09T22:22:45.121Z,25.67
2024-03-09T22:25:16.263Z,26.02
2024-03-09T22:27:45.082Z,18.10
2024-03-09T22:30:13.038Z,23.80
2024-03-09T22:32:40.941Z,25.23
2024-03-09T22:35:11.598Z,25.48
2024-03-09T22:37:39.454Z,24.83
2024-03-09T22:40:14.109Z,24.50
2024-03-09T22:42:40.783Z,25.67
2024-03-09T22:45:08.982Z,25.13
2024-03-09T22:47:37.019Z,25.30
2024-03-09T22:50:04.473Z,25.17
2024-03-09T22:52:31.808Z,25.58
2024-03-09T22:54:58.373Z,25.23
2024-03-09T22:57:24.770Z,24.90
2024-03-09T22:59:51.915Z,25.80
2024-03-09T23:02:18.376Z,26.90
2024-03-09T23:04:44.894Z,25.33
2024-03-09T23:07:11.321Z,25.50
2024-03-09T23:09:40.642Z,25.73
2024-03-09T23:12:10.778Z,25.98
2024-03-09T23:14:38.496Z,25.48
2024-03-09T23:17:06.146Z,25.70
2024-03-09T23:19:32.719Z,26.92
2024-03-09T23:22:01.842Z,26.92
2024-03-09T23:24:29.276Z,26.70
2024-03-09T23:26:58.150Z,25.50
2024-03-09T23:29:26.610Z,24.75
2024-03-09T23:31:53.110Z,26.27
2024-03-09T23:34:22.592Z,25.83
2024-03-09T23:36:49.770Z,24.40
2024-03-09T23:39:16.733Z,25.00
2024-03-09T23:41:44.011Z,25.83
2024-03-09T23:44:13.779Z,25.42
2024-03-09T23:46:40.989Z,25.50
2024-03-09T23:49:10.506Z,26.50
2024-03-09T23:51:37.688Z,24.73
2024-03-09T23:54:05.746Z,26.27
2024-03-09T23:56:33.142Z,26.25
2024-03-09T23:59:00.273Z,26.13
